Time;durP1;ratioP1;P1;durP2;ratioP2;P2;SDS_P1;SDS_P2;PMS_P1;PMS_P2;Temp;Humidity;BMP_temperature;BMP_pressure;BME280_temperature;BME280_humidity;BME280_pressure;Samples;Min_cycle;Max_cycle;Signal;HPM_P1;HPM_P2
2024/03/05 00:00:49;;;;;;;;;;;;;;;6.61;82.13;98847.91;5092702;28;19928;-67
2024/03/05 00:03:18;;;;;;;;;;;;;;;6.66;82.03;98846.22;5093026;28;19924;-67
2024/03/05 00:05:49;;;;;;;;;;;;;;;6.64;82.28;98858.06;5093781;28;19924;-67
2024/03/05 00:08:18;;;;;;;;;;;;;;;6.53;82.40;98849.56;5094126;28;19970;-67
2024/03/05 00:10:46;;;;;;;;;;;;;;;6.50;82.50;98852.09;5093529;28;20014;-67
2024/03/05 00:13:15;;;;;;;;;;;;;;;6.50;82.85;98859.69;5097175;28;19928;-67
2024/03/05 00:15:43;;;;;;;;;;;;;;;6.48;82.57;98856.31;5097726;28;19978;-67
2024/03/05 00:18:12;;;;;;;;;;;;;;;6.44;82.10;98854.63;5098339;28;19924;-67
2024/03/05 00:20:40;;;;;;;;;;;;;;;6.41;82.45;98859.69;5097840;28;20289;-67
2024/03/05 00:23:12;;;;;;;;;;;;;;;6.42;82.58;98858.00;5097602;28;20035;-67
2024/03/05 00:25:40;;;;;;;;;;;;;;;6.46;82.38;98863.06;5097688;28;19931;-67
2024/03/05 00:28:09;;;;;;;;;;;;;;;6.38;82.48;98868.97;5098455;28;20302;-67
2024/03/05 00:30:38;;;;;;;;;;;;;;;6.45;82.90;98869.00;5097942;28;19977;-67
2024/03/05 00:33:06;;;;;;;;;;;;;;;6.34;82.35;98862.19;5097786;28;19928;-67
2024/03/05 00:35:35;;;;;;;;;;;;;;;6.31;82.72;98857.94;5097715;28;20366;-67
2024/03/05 00:38:04;;;;;;;;;;;;;;;6.23;82.61;98857.09;5097627;28;19946;-67
2024/03/05 00:40:41;;;;;;;;;;;;;;;6.31;82.36;98863.00;5097561;28;19924;-67
2024/03/05 00:43:10;;;;;;;;;;;;;;;6.33;82.44;98855.44;5097881;28;19924;-67
2024/03/05 00:45:38;;;;;;;;;;;;;;;6.27;82.72;98861.31;5097450;28;19962;-67
2024/03/05 00:48:08;;;;;;;;;;;;;;;6.29;82.94;98864.72;5097481;28;20369;-67
2024/03/05 00:50:36;;;;;;;;;;;;;;;6.32;82.69;98849.53;5097169;28;19924;-68
2024/03/05 00:53:11;;;;;;;;;;;;;;;6.33;83.24;98846.16;5098040;28;19931;-67
2024/03/05 00:55:41;;;;;;;;;;;;;;;6.32;83.28;98844.47;5096141;28;19924;-67
2024/03/05 00:58:09;;;;;;;;;;;;;;;6.30;83.46;98846.16;5097333;28;19924;-67
2024/03/05 01:00:37;;;;;;;;;;;;;;;6.31;83.16;98852.88;5095940;28;19924;-68
2024/03/05 01:03:06;;;;;;;;;;;;;;;6.33;83.30;98851.22;5096249;28;19981;-67
2024/03/05 01:05:36;;;;;;;;;;;;;;;6.35;83.30;98852.06;5097064;28;20358;-66
2024/03/05 01:08:05;;;;;;;;;;;;;;;6.36;83.47;98845.31;5097296;28;20378;-67
2024/03/05 01:10:33;;;;;;;;;;;;;;;6.37;83.95;98852.91;5095803;28;19924;-67
2024/03/05 01:13:04;;;;;;;;;;;;;;;6.35;83.75;98849.53;5097020;28;19923;-67
2024/03/05 01:15:32;;;;;;;;;;;;;;;6.33;83.75;98851.22;5097307;28;19925;-67
2024/03/05 01:18:01;;;;;;;;;;;;;;;6.35;83.63;98859.69;5095330;28;20448;-68
2024/03/05 01:20:30;;;;;;;;;;;;;;;6.38;83.93;98859.66;5096427;28;19930;-67
2024/03/05 01:22:58;;;;;;;;;;;;;;;6.37;83.95;98857.97;5096049;28;19924;-67
2024/03/05 01:25:27;;;;;;;;;;;;;;;6.32;83.77;98853.75;5096484;28;19924;-67
2024/03/05 01:27:56;;;;;;;;;;;;;;;6.40;84.20;98847.88;5096939;28;19956;-67
2024/03/05 01:30:28;;;;;;;;;;;;;;;6.44;84.00;98841.94;5096999;28;19931;-67
2024/03/05 01:32:57;;;;;;;;;;;;;;;6.48;83.81;98840.25;5096706;28;19925;-67
2024/03/05 01:35:25;;;;;;;;;;;;;;;6.48;84.32;98840.25;5095379;28;19924;-67
2024/03/05 01:37:54;;;;;;;;;;;;;;;6.51;84.33;98841.13;5096668;28;19947;-67
2024/03/05 01:40:22;;;;;;;;;;;;;;;6.50;84.07;98847.00;5096416;28;19924;-67
2024/03/05 01:42:51;;;;;;;;;;;;;;;6.47;83.56;98831.81;5096446;28;20018;-67
2024/03/05 01:45:19;;;;;;;;;;;;;;;6.45;84.12;98836.06;5095017;28;20374;-67
2024/03/05 01:47:50;;;;;;;;;;;;;;;6.50;84.09;98844.47;5094784;28;20412;-67
2024/03/05 01:50:19;;;;;;;;;;;;;;;6.48;83.74;98846.16;5095088;28;20289;-67
2024/03/05 01:52:47;;;;;;;;;;;;;;;6.53;83.14;98849.56;5096298;28;19928;-67
2024/03/05 01:55:17;;;;;;;;;;;;;;;6.59;83.44;98852.13;5096459;28;19930;-67
2024/03/05 01:57:47;;;;;;;;;;;;;;;6.52;83.62;98840.28;5095785;28;19928;-67
2024/03/05 02:00:20;;;;;;;;;;;;;;;6.50;83.37;98854.63;5095216;28;19924;-67
2024/03/05 02:02:51;;;;;;;;;;;;;;;6.54;83.42;98856.34;5095819;28;20394;-67
2024/03/05 02:05:19;;;;;;;;;;;;;;;6.50;83.19;98843.66;5094776;28;19946;-67
2024/03/05 02:07:48;;;;;;;;;;;;;;;6.45;82.65;98851.25;5095910;28;20018;-67
2024/03/05 02:10:17;;;;;;;;;;;;;;;6.34;82.70;98852.91;5095454;28;19967;-68
2024/03/05 02:12:45;;;;;;;;;;;;;;;6.23;83.34;98849.50;5095925;28;19967;-67
2024/03/05 02:15:14;;;;;;;;;;;;;;;6.21;83.53;98855.41;5095574;28;20384;-67
2024/03/05 02:17:43;;;;;;;;;;;;;;;6.17;83.60;98856.25;5095781;28;20259;-68
2024/03/05 02:20:13;;;;;;;;;;;;;;;6.15;83.80;98860.44;5095331;28;19924;-67
2024/03/05 02:22:46;;;;;;;;;;;;;;;6.20;83.13;98868.91;5095729;28;20000;-67
2024/03/05 02:25:15;;;;;;;;;;;;;;;6.04;82.91;98865.47;5095347;28;20281;-67
2024/03/05 02:27:46;;;;;;;;;;;;;;;5.96;83.14;98864.59;5095680;28;19928;-68
2024/03/05 02:30:15;;;;;;;;;;;;;;;5.98;83.48;98865.44;5095456;28;19924;-67
2024/03/05 02:32:44;;;;;;;;;;;;;;;6.01;84.02;98873.91;5095184;28;19963;-68
2024/03/05 02:35:13;;;;;;;;;;;;;;;5.96;83.74;98870.50;5092768;28;20357;-67
2024/03/05 02:37:43;;;;;;;;;;;;;;;5.97;83.63;98876.41;5094399;28;19928;-67
2024/03/05 02:40:13;;;;;;;;;;;;;;;6.02;84.29;98875.59;5094183;28;19924;-67
2024/03/05 02:42:43;;;;;;;;;;;;;;;5.99;83.81;98880.66;5095094;28;19925;-67
2024/03/05 02:45:12;;;;;;;;;;;;;;;5.98;84.37;98878.09;5095209;28;20031;-67
2024/03/05 02:47:41;;;;;;;;;;;;;;;5.95;84.21;98873.03;5105093;28;19931;-67
2024/03/05 02:50:11;;;;;;;;;;;;;;;5.95;84.84;98873.88;5115014;28;20422;-67
2024/03/05 02:52:40;;;;;;;;;;;;;;;5.97;84.20;98876.41;5113488;28;19924;-67
2024/03/05 02:55:12;;;;;;;;;;;;;;;5.99;85.24;98878.13;5115521;28;19924;-68
2024/03/05 02:57:42;;;;;;;;;;;;;;;6.07;84.86;98888.25;5097345;28;20292;-67
2024/03/05 03:00:18;;;;;;;;;;;;;;;6.03;84.73;98889.94;5114878;28;19924;-67
2024/03/05 03:02:49;;;;;;;;;;;;;;;6.06;84.87;98889.13;5113897;28;20039;-68
2024/03/05 03:05:20;;;;;;;;;;;;;;;6.08;84.70;98890.81;5113981;28;19935;-67
2024/03/05 03:07:50;;;;;;;;;;;;;;;6.02;85.06;98884.88;5114100;28;19946;-67
2024/03/05 03:10:21;;;;;;;;;;;;;;;6.02;85.17;98889.97;5114456;28;20015;-67
2024/03/05 03:12:49;;;;;;;;;;;;;;;5.99;85.43;98890.78;5115524;28;19924;-67
2024/03/05 03:15:18;;;;;;;;;;;;;;;5.96;85.44;98894.97;5113938;28;19935;-67
2024/03/05 03:17:47;;;;;;;;;;;;;;;5.92;85.44;98898.34;5114690;28;19924;-67
2024/03/05 03:20:16;;;;;;;;;;;;;;;5.91;85.41;98901.69;5115078;28;19924;-67
2024/03/05 03:22:45;;;;;;;;;;;;;;;5.86;85.44;98903.34;5113588;28;20030;-67
2024/03/05 03:25:14;;;;;;;;;;;;;;;5.79;85.42;98901.59;5114385;28;20369;-67
2024/03/05 03:27:44;;;;;;;;;;;;;;;5.80;85.33;98913.44;5114960;28;19924;-67
2024/03/05 03:30:17;;;;;;;;;;;;;;;5.80;85.72;98903.31;5115053;28;20385;-67
2024/03/05 03:32:47;;;;;;;;;;;;;;;5.82;85.29;98921.88;5113823;28;20358;-68
2024/03/05 03:35:15;;;;;;;;;;;;;;;5.82;85.66;98917.66;5114935;28;20285;-67
2024/03/05 03:37:44;;;;;;;;;;;;;;;5.77;85.24;98913.41;5114476;28;19923;-67
2024/03/05 03:40:20;;;;;;;;;;;;;;;5.76;85.57;98916.78;5115079;28;19923;-67
2024/03/05 03:42:51;;;;;;;;;;;;;;;5.67;85.44;98916.72;5114329;28;20281;-67
2024/03/05 03:45:20;;;;;;;;;;;;;;;5.66;85.33;98922.63;5114430;28;19923;-67
2024/03/05 03:47:49;;;;;;;;;;;;;;;5.65;85.30;98923.44;5114643;28;19932;-67
2024/03/05 03:50:17;;;;;;;;;;;;;;;5.56;85.25;98913.28;5115090;28;19924;-67
2024/03/05 03:52:46;;;;;;;;;;;;;;;5.54;85.57;98920.03;5114478;28;19935;-66
2024/03/05 03:55:15;;;;;;;;;;;;;;;5.57;85.95;98920.00;5114340;28;20018;-67
2024/03/05 03:57:45;;;;;;;;;;;;;;;5.52;85.78;98919.16;5114676;28;19927;-67
2024/03/05 04:00:18;;;;;;;;;;;;;;;5.50;85.52;98924.19;5096697;28;20350;-67
2024/03/05 04:02:47;;;;;;;;;;;;;;;5.46;85.95;98925.03;5112886;28;20275;-67
2024/03/05 04:05:16;;;;;;;;;;;;;;;5.45;86.07;98927.56;5114098;28;20378;-67
2024/03/05 04:07:45;;;;;;;;;;;;;;;5.42;86.22;98926.66;5113110;28;20374;-67
2024/03/05 04:10:14;;;;;;;;;;;;;;;5.37;85.88;98927.50;5115181;28;19924;-67
2024/03/05 04:12:44;;;;;;;;;;;;;;;5.26;85.42;98929.06;5114575;28;20042;-67
2024/03/05 04:15:13;;;;;;;;;;;;;;;5.18;85.65;98939.13;5114465;28;19993;-67
2024/03/05 04:17:44;;;;;;;;;;;;;;;5.13;85.21;98945.00;5114087;28;20374;-67
2024/03/05 04:20:14;;;;;;;;;;;;;;;5.06;85.53;98946.59;5114460;28;19924;-67
2024/03/05 04:22:44;;;;;;;;;;;;;;;5.02;85.19;98939.81;5114245;28;19924;-67
2024/03/05 04:25:13;;;;;;;;;;;;;;;5.06;85.70;98945.78;5112609;28;19947;-67
2024/03/05 04:27:45;;;;;;;;;;;;;;;4.99;85.09;98949.91;5114392;28;19924;-67
2024/03/05 04:30:16;;;;;;;;;;;;;;;4.95;84.96;98958.28;5114407;28;19930;-67
2024/03/05 04:32:49;;;;;;;;;;;;;;;4.92;85.00;98958.25;5114258;28;20010;-67
2024/03/05 04:35:27;;;;;;;;;;;;;;;4.89;85.05;98963.31;5113136;28;19952;-67
2024/03/05 04:37:57;;;;;;;;;;;;;;;4.90;85.09;98959.06;5114808;28;20273;-67
2024/03/05 04:40:26;;;;;;;;;;;;;;;4.92;85.15;98963.31;5114243;28;19977;-67
2024/03/05 04:42:55;;;;;;;;;;;;;;;4.90;85.03;98961.59;5114164;28;19979;-67
2024/03/05 04:45:25;;;;;;;;;;;;;;;4.93;85.11;98959.97;5114048;28;19924;-67
2024/03/05 04:47:55;;;;;;;;;;;;;;;4.95;84.94;98957.44;5114788;28;20022;-67
2024/03/05 04:50:24;;;;;;;;;;;;;;;4.99;85.28;98964.25;5114747;28;19924;-67
2024/03/05 04:52:53;;;;;;;;;;;;;;;4.89;84.58;98964.97;5114390;28;19924;-67
2024/03/05 04:55:23;;;;;;;;;;;;;;;4.83;84.67;98963.22;5114043;28;19928;-67
2024/03/05 04:57:52;;;;;;;;;;;;;;;4.80;84.53;98968.25;5113366;28;19924;-67
2024/03/05 05:00:20;;;;;;;;;;;;;;;4.79;85.11;98969.09;5117677;28;19931;-67
2024/03/05 05:02:51;;;;;;;;;;;;;;;4.85;84.86;98975.91;5117546;28;19927;-67
2024/03/05 05:05:24;;;;;;;;;;;;;;;4.79;84.69;98966.56;5117259;28;19924;-67
2024/03/05 05:07:56;;;;;;;;;;;;;;;4.80;85.08;98973.31;5116427;28;19977;-67
2024/03/05 05:10:25;;;;;;;;;;;;;;;4.81;85.39;98975.00;5117748;27;19930;-67
2024/03/05 05:12:53;;;;;;;;;;;;;;;4.77;84.75;98975.81;5115845;28;20368;-67
2024/03/05 05:15:22;;;;;;;;;;;;;;;4.75;84.86;98985.06;5117341;28;19924;-67
2024/03/05 05:17:50;;;;;;;;;;;;;;;4.73;84.97;98985.03;5116942;28;19975;-67
2024/03/05 05:20:19;;;;;;;;;;;;;;;4.63;84.83;98984.94;5117872;28;19949;-67
2024/03/05 05:22:49;;;;;;;;;;;;;;;4.64;84.97;98981.56;5117199;28;20360;-67
2024/03/05 05:25:19;;;;;;;;;;;;;;;4.67;85.04;98990.03;5115583;28;19996;-67
2024/03/05 05:27:49;;;;;;;;;;;;;;;4.60;84.81;98989.94;5117465;28;19931;-67
2024/03/05 05:30:18;;;;;;;;;;;;;;;4.64;85.06;98989.13;5116012;28;19959;-67
2024/03/05 05:32:47;;;;;;;;;;;;;;;4.77;84.95;98997.72;5115848;28;19930;-67
2024/03/05 05:35:16;;;;;;;;;;;;;;;4.79;84.73;98991.84;5116963;28;19978;-67
2024/03/05 05:37:44;;;;;;;;;;;;;;;4.79;84.79;99004.47;5116928;28;20050;-67
2024/03/05 05:40:16;;;;;;;;;;;;;;;4.75;84.82;98998.53;5116482;28;19990;-67
2024/03/05 05:42:49;;;;;;;;;;;;;;;4.74;84.65;98996.00;5116562;28;19955;-68
2024/03/05 05:45:18;;;;;;;;;;;;;;;4.72;84.83;98993.47;5116704;28;19931;-67
2024/03/05 05:47:51;;;;;;;;;;;;;;;4.77;84.57;98993.50;5116836;28;19928;-67
2024/03/05 05:50:22;;;;;;;;;;;;;;;4.74;84.86;98999.38;5115533;28;19972;-67
2024/03/05 05:52:52;;;;;;;;;;;;;;;4.73;85.07;99002.72;5116715;28;19924;-67
2024/03/05 05:55:24;;;;;;;;;;;;;;;4.77;85.12;99013.72;5116655;28;19927;-67
2024/03/05 05:57:55;;;;;;;;;;;;;;;4.72;85.05;99012.81;5116487;28;19924;-67
2024/03/05 06:00:31;;;;;;;;;;;;;;;4.73;85.03;99011.97;5116187;28;19924;-67
2024/03/05 06:03:03;;;;;;;;;;;;;;;4.75;85.12;99015.41;5115437;28;19952;-67
2024/03/05 06:05:35;;;;;;;;;;;;;;;4.74;85.00;99013.69;5116510;28;20018;-67
2024/03/05 06:08:04;;;;;;;;;;;;;;;4.82;85.52;99004.53;5116470;28;19968;-67
2024/03/05 06:10:35;;;;;;;;;;;;;;;4.90;85.62;99013.00;5114898;28;19923;-67
2024/03/05 06:13:03;;;;;;;;;;;;;;;4.99;85.86;99009.75;5115053;28;19924;-68
2024/03/05 06:15:32;;;;;;;;;;;;;;;5.10;85.92;99019.16;5114922;28;19931;-67
2024/03/05 06:18:01;;;;;;;;;;;;;;;5.28;85.98;99011.72;5116022;28;19969;-67
2024/03/05 06:20:30;;;;;;;;;;;;;;;5.45;85.92;99019.47;5114495;28;19928;-67
2024/03/05 06:23:00;;;;;;;;;;;;;;;5.51;85.88;99024.59;5114731;28;19931;-67
2024/03/05 06:25:29;;;;;;;;;;;;;;;5.61;85.70;99023.00;5115539;28;20286;-67
2024/03/05 06:27:59;;;;;;;;;;;;;;;5.69;85.50;99027.25;5116079;28;19946;-68
2024/03/05 06:30:28;;;;;;;;;;;;;;;5.78;85.80;99026.50;5114918;28;19931;-67
2024/03/05 06:32:56;;;;;;;;;;;;;;;5.88;85.55;99028.28;5114663;28;19930;-67
2024/03/05 06:35:26;;;;;;;;;;;;;;;6.03;86.28;99036.84;5115767;28;20316;-67
2024/03/05 06:37:57;;;;;;;;;;;;;;;6.21;86.08;99042.88;5115773;28;19993;-68
2024/03/05 06:40:26;;;;;;;;;;;;;;;6.36;86.34;99045.50;5115488;28;19984;-68
2024/03/05 06:43:03;;;;;;;;;;;;;;;6.54;86.24;99041.38;5115639;27;19930;-68
2024/03/05 06:45:35;;;;;;;;;;;;;;;6.71;85.96;99042.31;5115721;28;20010;-68
2024/03/05 06:48:07;;;;;;;;;;;;;;;6.89;85.66;99045.72;5115532;28;19928;-66
2024/03/05 06:50:41;;;;;;;;;;;;;;;6.99;85.76;99050.00;5115686;28;19924;-67
2024/03/05 06:58:45;;;;;;;;;;;;;;;7.39;85.29;99059.41;5115674;28;19955;-67
2024/03/05 07:01:17;;;;;;;;;;;;;;;7.54;84.49;99069.59;5115322;28;19927;-67
2024/03/05 07:03:46;;;;;;;;;;;;;;;7.71;84.22;99060.28;5115077;28;19928;-66
2024/03/05 07:06:15;;;;;;;;;;;;;;;7.79;84.14;99058.63;5113965;28;19923;-67
2024/03/05 07:08:44;;;;;;;;;;;;;;;7.84;83.70;99054.38;5114769;28;20022;-67
2024/03/05 07:11:15;;;;;;;;;;;;;;;7.99;83.80;99061.97;5115173;28;19924;-66
2024/03/05 07:13:47;;;;;;;;;;;;;;;8.06;83.69;99062.84;5114689;28;19932;-67
2024/03/05 07:16:18;;;;;;;;;;;;;;;8.22;82.50;99061.13;5115240;28;19928;-66
2024/03/05 07:18:48;;;;;;;;;;;;;;;8.22;82.07;99056.88;5115075;28;19969;-66
2024/03/05 07:21:19;;;;;;;;;;;;;;;8.18;82.53;99064.53;5113225;28;19924;-67
2024/03/05 07:23:49;;;;;;;;;;;;;;;8.30;82.76;99069.63;5113486;28;19924;-66
2024/03/05 07:26:18;;;;;;;;;;;;;;;8.52;81.84;99068.72;5113232;28;19930;-66
2024/03/05 07:28:47;;;;;;;;;;;;;;;8.65;82.44;99068.69;5115007;28;20350;-67
2024/03/05 07:31:18;;;;;;;;;;;;;;;8.86;82.64;99072.84;5114631;28;19924;-67
2024/03/05 07:33:48;;;;;;;;;;;;;;;9.02;81.85;99064.28;5115014;28;19928;-67
2024/03/05 07:36:20;;;;;;;;;;;;;;;9.22;81.81;99077.78;5113706;28;19924;-67
2024/03/05 07:38:49;;;;;;;;;;;;;;;9.26;81.32;99079.44;5114710;28;19924;-67
2024/03/05 07:41:18;;;;;;;;;;;;;;;9.33;81.39;99078.56;5114381;28;19928;-67
2024/03/05 07:44:02;;;;;;;;;;;;;;;9.52;80.49;99092.06;5096167;28;19932;-67
2024/03/05 07:46:34;;;;;;;;;;;;;;;9.56;80.45;99088.63;5114875;28;19924;-67
2024/03/05 07:49:03;;;;;;;;;;;;;;;9.70;79.92;99085.97;5114584;28;19927;-68
2024/03/05 07:51:32;;;;;;;;;;;;;;;9.86;79.87;99087.56;5114656;28;19931;-68
2024/03/05 07:54:12;;;;;;;;;;;;;;;10.01;79.63;99092.53;5114429;28;19924;-67
2024/03/05 07:56:42;;;;;;;;;;;;;;;10.08;79.16;99089.06;5114377;28;19927;-68
2024/03/05 07:59:11;;;;;;;;;;;;;;;10.05;79.06;99092.50;5114914;28;19972;-67
2024/03/05 08:01:41;;;;;;;;;;;;;;;10.05;79.04;99094.22;5114499;28;19924;-67
2024/03/05 08:04:10;;;;;;;;;;;;;;;10.09;79.39;99091.63;5114756;28;19925;-68
2024/03/05 08:06:39;;;;;;;;;;;;;;;10.21;79.51;99088.16;5114318;28;19969;-67
2024/03/05 08:09:07;;;;;;;;;;;;;;;10.17;80.10;99093.31;5113427;28;19985;-67
2024/03/05 08:11:36;;;;;;;;;;;;;;;10.26;80.30;99094.06;5114680;28;19927;-67
2024/03/05 08:14:07;;;;;;;;;;;;;;;10.34;80.07;99092.28;5114409;28;19924;-67
2024/03/05 08:16:38;;;;;;;;;;;;;;;10.52;80.36;99086.16;5113209;28;20034;-67
2024/03/05 08:19:09;;;;;;;;;;;;;;;10.64;80.38;99086.88;5113264;28;19924;-69
2024/03/05 08:21:38;;;;;;;;;;;;;;;10.73;80.23;99093.59;5114103;28;19924;-67
2024/03/05 08:24:09;;;;;;;;;;;;;;;10.94;80.41;99082.31;5113862;28;19949;-68
2024/03/05 08:26:38;;;;;;;;;;;;;;;11.04;80.11;99087.25;5114209;28;19931;-68
2024/03/05 08:29:07;;;;;;;;;;;;;;;11.15;80.24;99094.81;5114253;28;20334;-67
2024/03/05 08:31:36;;;;;;;;;;;;;;;11.05;79.48;99090.66;5113307;28;20289;-68
2024/03/05 08:34:05;;;;;;;;;;;;;;;10.97;79.77;99100.13;5118743;28;19928;-68
2024/03/05 08:36:36;;;;;;;;;;;;;;;11.16;79.86;99093.91;5118086;28;19969;-70
2024/03/05 08:39:17;;;;;;;;;;;;;;;11.33;79.74;99102.22;5118224;28;20286;-68
2024/03/05 08:41:47;;;;;;;;;;;;;;;11.55;79.61;99090.84;5118030;28;19974;-68
2024/03/05 08:44:16;;;;;;;;;;;;;;;11.74;79.12;99094.84;5118226;28;20292;-68
2024/03/05 08:46:45;;;;;;;;;;;;;;;11.77;78.46;99101.63;5099688;28;20354;-68
2024/03/05 08:49:13;;;;;;;;;;;;;;;11.81;78.58;99099.00;5117411;28;19923;-68
2024/03/05 08:51:45;;;;;;;;;;;;;;;11.83;78.18;99102.38;5117882;28;20335;-68
2024/03/05 08:54:13;;;;;;;;;;;;;;;11.99;78.04;99098.75;5117947;28;20366;-68
2024/03/05 08:56:45;;;;;;;;;;;;;;;12.04;77.46;99101.22;5117895;28;19978;-68
2024/03/05 08:59:14;;;;;;;;;;;;;;;12.17;77.15;99099.28;5117699;28;20052;-68
2024/03/05 09:01:43;;;;;;;;;;;;;;;12.26;76.41;99101.72;5098891;28;19930;-67
2024/03/05 09:04:11;;;;;;;;;;;;;;;12.29;75.47;99091.41;5117644;28;19924;-68
2024/03/05 09:06:40;;;;;;;;;;;;;;;12.40;74.92;99090.38;5117070;28;19923;-68
2024/03/05 09:09:11;;;;;;;;;;;;;;;12.62;74.48;99095.97;5117158;28;20389;-68
2024/03/05 09:11:40;;;;;;;;;;;;;;;12.69;73.65;99092.41;5116354;28;19927;-68
2024/03/05 09:14:09;;;;;;;;;;;;;;;12.84;73.09;99099.78;5117117;28;20030;-68
2024/03/05 09:16:39;;;;;;;;;;;;;;;12.95;72.19;99094.47;5116095;28;19966;-68
2024/03/05 09:19:07;;;;;;;;;;;;;;;13.04;71.72;99097.69;5115778;28;20362;-68
2024/03/05 09:21:36;;;;;;;;;;;;;;;13.16;71.71;99094.06;5117299;27;20389;-68
2024/03/05 09:24:06;;;;;;;;;;;;;;;13.32;71.78;99096.25;5116801;28;19924;-68
2024/03/05 09:26:36;;;;;;;;;;;;;;;13.47;70.51;99104.50;5115615;28;19969;-68
2024/03/05 09:29:05;;;;;;;;;;;;;;;13.58;70.62;99098.25;5115900;28;19924;-70
2024/03/05 09:31:33;;;;;;;;;;;;;;;13.69;70.18;99095.47;5117395;28;20470;-68
2024/03/05 09:34:02;;;;;;;;;;;;;;;13.73;69.71;99100.47;5117085;28;19992;-68
2024/03/05 09:36:30;;;;;;;;;;;;;;;13.80;69.15;99103.75;5116983;28;19970;-69
2024/03/05 09:39:08;;;;;;;;;;;;;;;13.73;68.99;99102.19;5116949;28;19927;-68
2024/03/05 09:41:46;;;;;;;;;;;;;;;13.96;69.02;99094.84;5117806;28;19924;-68
2024/03/05 09:44:14;;;;;;;;;;;;;;;14.13;68.69;99095.28;5115891;27;20404;-68
2024/03/05 09:46:45;;;;;;;;;;;;;;;14.18;68.61;99095.97;5116397;28;19981;-68
2024/03/05 09:49:15;;;;;;;;;;;;;;;14.29;68.42;99099.13;5116757;28;20056;-68
2024/03/05 09:51:52;;;;;;;;;;;;;;;14.35;68.58;99103.31;5115565;28;19989;-67
2024/03/05 09:54:21;;;;;;;;;;;;;;;14.48;67.90;99105.53;5114729;28;19930;-67
2024/03/05 09:56:53;;;;;;;;;;;;;;;14.47;66.64;99103.84;5116772;28;19972;-68
2024/03/05 09:59:22;;;;;;;;;;;;;;;14.53;66.05;99102.84;5098344;28;19924;-67
2024/03/05 10:01:50;;;;;;;;;;;;;;;14.83;66.78;99111.47;5116654;28;19923;-68
2024/03/05 10:04:19;;;;;;;;;;;;;;;15.20;67.24;99117.25;5116256;28;20399;-69
2024/03/05 10:06:48;;;;;;;;;;;;;;;15.51;67.10;99112.94;5113029;28;20360;-68
2024/03/05 10:09:18;;;;;;;;;;;;;;;15.77;66.01;99118.16;5105006;28;20335;-68
2024/03/05 10:11:53;;;;;;;;;;;;;;;15.78;63.51;99112.13;5095956;28;20439;-68
2024/03/05 10:14:24;;;;;;;;;;;;;;;15.97;63.11;99113.22;5095841;28;19924;-68
2024/03/05 10:17:00;;;;;;;;;;;;;;;15.65;61.06;99110.81;5095827;28;19969;-68
2024/03/05 10:19:41;;;;;;;;;;;;;;;15.29;62.48;99114.44;5095750;28;19924;-68
2024/03/05 10:22:11;;;;;;;;;;;;;;;15.32;62.86;99116.91;5095771;28;19928;-68
2024/03/05 10:24:40;;;;;;;;;;;;;;;15.36;60.31;99115.94;5077472;28;19928;-68
2024/03/05 10:27:14;;;;;;;;;;;;;;;15.19;59.31;99110.44;5095019;28;19924;-69
2024/03/05 10:29:42;;;;;;;;;;;;;;;15.07;59.44;99110.81;5095276;28;19924;-67
2024/03/05 10:32:11;;;;;;;;;;;;;;;15.24;59.77;99114.56;5095826;28;19924;-68
2024/03/05 10:34:43;;;;;;;;;;;;;;;15.68;60.15;99115.88;5094348;28;20381;-68
2024/03/05 10:37:12;;;;;;;;;;;;;;;15.70;58.22;99114.06;5093611;28;19946;-68
2024/03/05 10:39:41;;;;;;;;;;;;;;;15.45;57.86;99117.44;5095072;28;20027;-69
2024/03/05 10:42:13;;;;;;;;;;;;;;;15.11;58.13;99108.09;5095939;28;20358;-69
2024/03/05 10:44:42;;;;;;;;;;;;;;;15.18;58.23;99117.31;5095220;28;19931;-68
2024/03/05 10:47:11;;;;;;;;;;;;;;;15.37;58.31;99113.34;5094874;28;19924;-68
2024/03/05 10:49:40;;;;;;;;;;;;;;;15.39;58.60;99108.97;5095029;28;19926;-69
2024/03/05 10:52:09;;;;;;;;;;;;;;;15.26;57.38;99114.53;5094804;28;20370;-69
2024/03/05 10:54:38;;;;;;;;;;;;;;;14.94;57.73;99114.59;5094957;28;19933;-69
2024/03/05 10:57:07;;;;;;;;;;;;;;;14.78;58.07;99109.84;5093910;28;19931;-67
2024/03/05 10:59:40;;;;;;;;;;;;;;;14.91;59.16;99117.22;5094931;28;19928;-68
2024/03/05 11:02:12;;;;;;;;;;;;;;;15.06;60.23;99114.25;5094632;28;19924;-68
2024/03/05 11:04:42;;;;;;;;;;;;;;;15.44;60.06;99119.13;5093747;28;20421;-68
2024/03/05 11:07:13;;;;;;;;;;;;;;;15.77;59.34;99115.56;5094607;28;19924;-68
2024/03/05 11:09:44;;;;;;;;;;;;;;;15.96;58.92;99113.25;5099798;28;19971;-68
2024/03/05 11:12:13;;;;;;;;;;;;;;;16.40;59.00;99104.09;5097429;28;19924;-68
2024/03/05 11:14:45;;;;;;;;;;;;;;;16.63;58.56;99109.34;5093761;28;19930;-67
2024/03/05 11:17:16;;;;;;;;;;;;;;;16.85;57.60;99109.44;5094672;28;19931;-68
2024/03/05 11:19:46;;;;;;;;;;;;;;;17.17;57.85;99107.41;5094646;28;19931;-68
2024/03/05 11:22:22;;;;;;;;;;;;;;;17.45;57.84;99109.78;5094728;28;20030;-67
2024/03/05 11:24:53;;;;;;;;;;;;;;;17.51;56.58;99111.31;5092962;28;20386;-68
2024/03/05 11:27:25;;;;;;;;;;;;;;;17.64;56.64;99115.13;5094243;28;19924;-68
2024/03/05 11:30:06;;;;;;;;;;;;;;;17.52;55.26;99110.44;5094709;28;19930;-68
2024/03/05 11:32:34;;;;;;;;;;;;;;;17.73;56.00;99112.22;5093730;28;20016;-68
2024/03/05 11:35:03;;;;;;;;;;;;;;;17.88;55.39;99106.44;5094536;28;19924;-68
2024/03/05 11:37:47;;;;;;;;;;;;;;;18.01;54.99;99118.81;5094375;28;19932;-68
2024/03/05 11:40:17;;;;;;;;;;;;;;;18.21;54.23;99115.41;5094866;28;19923;-69
2024/03/05 11:42:46;;;;;;;;;;;;;;;17.97;51.02;99113.84;5093997;28;20285;-68
2024/03/05 11:45:29;;;;;;;;;;;;;;;17.39;51.20;99115.19;5093868;28;20332;-68
2024/03/05 11:48:02;;;;;;;;;;;;;;;16.75;51.68;99114.91;5092238;28;19924;-68
2024/03/05 11:50:32;;;;;;;;;;;;;;;16.66;52.37;99116.97;5094008;28;20297;-67
2024/03/05 11:53:01;;;;;;;;;;;;;;;16.77;52.97;99116.63;5110948;28;20026;-68
2024/03/05 11:55:29;;;;;;;;;;;;;;;16.63;52.72;99117.06;5114877;28;20022;-68
2024/03/05 11:57:58;;;;;;;;;;;;;;;16.42;53.49;99117.78;5113405;28;19924;-68
2024/03/05 12:00:28;;;;;;;;;;;;;;;16.35;54.23;99116.28;5096241;28;20389;-68
2024/03/05 12:02:57;;;;;;;;;;;;;;;16.45;54.51;99105.66;5114546;28;19927;-68
2024/03/05 12:05:29;;;;;;;;;;;;;;;16.73;54.45;99105.56;5114476;28;19924;-68
2024/03/05 12:07:59;;;;;;;;;;;;;;;16.66;53.70;99093.78;5116765;28;19923;-68
2024/03/05 12:10:31;;;;;;;;;;;;;;;16.67;53.51;99095.47;5117267;28;19923;-68
2024/03/05 12:13:00;;;;;;;;;;;;;;;16.84;53.97;99093.16;5118469;28;20306;-68
2024/03/05 12:15:29;;;;;;;;;;;;;;;17.03;53.75;99099.34;5117002;28;20293;-68
2024/03/05 12:17:58;;;;;;;;;;;;;;;17.17;53.54;99098.81;5118542;28;20023;-68
2024/03/05 12:20:29;;;;;;;;;;;;;;;17.46;54.09;99102.91;5118023;28;20018;-68
2024/03/05 12:22:58;;;;;;;;;;;;;;;17.53;54.59;99099.22;5118582;28;19924;-68
2024/03/05 12:25:27;;;;;;;;;;;;;;;17.28;53.65;99105.25;5118058;28;19924;-68
2024/03/05 12:27:59;;;;;;;;;;;;;;;17.39;53.35;99107.47;5118109;28;19923;-68
2024/03/05 12:30:31;;;;;;;;;;;;;;;17.65;53.55;99103.91;5117963;28;19931;-67
2024/03/05 12:33:00;;;;;;;;;;;;;;;17.57;53.29;99105.94;5118280;28;19977;-68
2024/03/05 12:35:30;;;;;;;;;;;;;;;17.43;53.62;99109.88;5117838;28;19923;-68
2024/03/05 12:38:02;;;;;;;;;;;;;;;17.43;53.29;99115.03;5117771;28;20379;-69
2024/03/05 12:40:31;;;;;;;;;;;;;;;17.22;53.09;99112.41;5118040;28;19928;-68
2024/03/05 12:43:05;;;;;;;;;;;;;;;17.16;53.75;99120.34;5117995;28;19945;-68
2024/03/05 12:45:34;;;;;;;;;;;;;;;17.02;53.86;99113.13;5117819;28;19924;-67
2024/03/05 12:48:05;;;;;;;;;;;;;;;16.64;53.61;99111.88;5117686;28;20299;-68
2024/03/05 12:50:39;;;;;;;;;;;;;;;16.61;53.28;99111.13;5117966;28;19931;-67
2024/03/05 12:53:09;;;;;;;;;;;;;;;16.54;53.34;99113.09;5117776;28;19959;-68
2024/03/05 12:55:38;;;;;;;;;;;;;;;16.66;53.48;99109.25;5116614;28;20373;-68
2024/03/05 12:58:07;;;;;;;;;;;;;;;16.62;53.87;99113.69;5116075;28;19938;-68
2024/03/05 13:00:36;;;;;;;;;;;;;;;16.88;54.36;99120.50;5116516;28;19924;-68
2024/03/05 13:03:05;;;;;;;;;;;;;;;17.14;54.29;99117.81;5117532;28;19924;-68
2024/03/05 13:05:34;;;;;;;;;;;;;;;17.02;53.70;99118.28;5116458;28;19930;-68
2024/03/05 13:08:04;;;;;;;;;;;;;;;16.79;53.48;99117.41;5117256;28;19953;-68
2024/03/05 13:10:33;;;;;;;;;;;;;;;16.51;53.83;99122.59;5117181;28;19924;-69
2024/03/05 13:13:03;;;;;;;;;;;;;;;16.22;54.09;99121.00;5117150;28;20267;-68